createdAt,value
2019-05-14T00:01:13.143Z,5.30
2019-05-14T00:03:43.647Z,5.40
2019-05-14T00:06:13.589Z,5.20
2019-05-14T00:08:42.581Z,5.10
2019-05-14T00:11:18.359Z,5.20
2019-05-14T00:13:51.851Z,5.20
2019-05-14T00:16:28.930Z,5.20
2019-05-14T00:19:06.734Z,5.20
2019-05-14T00:21:34.846Z,5.30
2019-05-14T00:24:02.610Z,5.20
2019-05-14T00:26:33.146Z,5.20
2019-05-14T00:29:01.697Z,5.20
2019-05-14T00:31:31.653Z,5.20
2019-05-14T00:33:59.067Z,5.20
2019-05-14T00:36:32.276Z,5.10
2019-05-14T00:39:04.789Z,5.00
2019-05-14T00:41:32.567Z,5.00
2019-05-14T00:44:13.543Z,4.80
2019-05-14T00:46:42.785Z,4.70
2019-05-14T00:49:13.038Z,4.80
2019-05-14T00:51:43.434Z,4.80
2019-05-14T00:54:16.099Z,4.90
2019-05-14T00:56:49.187Z,4.90
2019-05-14T00:59:21.515Z,4.80
2019-05-14T01:01:51.459Z,4.80
2019-05-14T01:04:22.110Z,4.80
2019-05-14T01:06:51.147Z,4.70
2019-05-14T01:09:21.808Z,4.60
2019-05-14T01:11:53.835Z,4.60
2019-05-14T01:14:33.449Z,4.60
2019-05-14T01:17:11.294Z,4.60
2019-05-14T01:19:42.208Z,4.50
2019-05-14T01:22:09.113Z,4.50
2019-05-14T01:24:41.740Z,4.50
2019-05-14T01:27:18.547Z,4.50
2019-05-14T01:29:57.706Z,4.50
2019-05-14T01:32:27.108Z,4.30
2019-05-14T01:35:03.144Z,4.10
2019-05-14T01:37:36.098Z,4.00
2019-05-14T01:40:05.046Z,3.90
2019-05-14T01:42:32.694Z,3.90
2019-05-14T01:45:02.636Z,3.90
2019-05-14T01:47:36.417Z,3.90
2019-05-14T01:50:10.916Z,3.90
2019-05-14T01:52:41.261Z,4.00
2019-05-14T01:55:11.203Z,4.00
2019-05-14T01:57:42.642Z,4.00
2019-05-14T02:00:12.569Z,3.90
2019-05-14T02:02:46.598Z,3.90
2019-05-14T02:05:21.830Z,4.00
2019-05-14T02:07:52.590Z,3.90
2019-05-14T02:10:22.619Z,3.90
2019-05-14T02:12:55.487Z,3.80
2019-05-14T02:15:37.090Z,3.70
2019-05-14T02:18:06.778Z,3.60
2019-05-14T02:20:54.188Z,3.60
2019-05-14T02:23:22.915Z,3.70
2019-05-14T02:25:57.844Z,3.50
2019-05-14T02:28:25.778Z,3.60
2019-05-14T02:31:02.785Z,3.70
2019-05-14T02:33:30.571Z,3.70
2019-05-14T02:36:05.822Z,3.70
2019-05-14T02:38:34.483Z,3.70
2019-05-14T02:41:09.977Z,3.70
2019-05-14T02:43:40.891Z,3.70
2019-05-14T02:46:16.035Z,3.60
2019-05-14T02:48:43.869Z,3.50
2019-05-14T02:51:14.439Z,3.50
2019-05-14T02:53:49.753Z,3.50
2019-05-14T02:56:20.735Z,3.30
2019-05-14T02:58:50.150Z,3.20
2019-05-14T03:01:20.261Z,3.10
2019-05-14T03:03:51.684Z,3.00
2019-05-14T03:06:23.405Z,3.10
2019-05-14T03:08:54.930Z,3.10
2019-05-14T03:11:29.438Z,3.20
2019-05-14T03:13:59.904Z,3.30
2019-05-14T03:16:32.458Z,3.30
2019-05-14T03:19:23.887Z,3.30
2019-05-14T03:22:11.214Z,3.30
2019-05-14T03:24:43.688Z,3.40
2019-05-14T03:27:15.400Z,3.40
2019-05-14T03:29:44.349Z,3.40
2019-05-14T03:32:23.286Z,3.40
2019-05-14T03:34:52.866Z,3.40
2019-05-14T03:37:41.785Z,3.40
2019-05-14T03:40:09.833Z,3.30
2019-05-14T03:42:39.998Z,3.30
2019-05-14T03:45:09.769Z,3.10
2019-05-14T03:47:39.354Z,3.00
2019-05-14T03:50:19.028Z,3.10
2019-05-14T03:52:46.294Z,3.10
2019-05-14T03:55:13.971Z,3.30
2019-05-14T03:57:44.564Z,3.20
2019-05-14T04:00:13.024Z,3.40
2019-05-14T04:02:42.677Z,3.60
2019-05-14T04:05:10.442Z,3.60
2019-05-14T04:07:39.939Z,3.60
2019-05-14T04:10:12.039Z,3.60
2019-05-14T04:12:43.458Z,3.50
2019-05-14T04:15:11.178Z,3.50
2019-05-14T04:17:43.071Z,3.40
2019-05-14T04:20:15.219Z,3.40
2019-05-14T04:22:49.725Z,3.40
2019-05-14T04:25:19.596Z,3.40
2019-05-14T04:27:51.683Z,3.30
2019-05-14T04:30:32.616Z,3.30
2019-05-14T04:33:18.722Z,3.40
2019-05-14T04:36:10.150Z,3.50
2019-05-14T04:38:55.214Z,3.30
2019-05-14T04:41:49.863Z,3.20
2019-05-14T04:44:30.197Z,3.20
2019-05-14T04:47:20.233Z,3.10
2019-05-14T04:49:33.398Z,3.00
2019-05-14T04:52:14.103Z,3.10
2019-05-14T04:54:43.438Z,3.30
2019-05-14T04:57:14.335Z,3.30
2019-05-14T04:59:44.293Z,3.40
2019-05-14T05:02:24.820Z,3.30
2019-05-14T05:04:52.650Z,3.60
2019-05-14T05:07:23.172Z,3.60
2019-05-14T05:09:53.991Z,3.70
2019-05-14T05:12:29.615Z,3.60
2019-05-14T05:14:59.891Z,3.80
2019-05-14T05:17:42.524Z,3.80
2019-05-14T05:20:18.540Z,3.90
2019-05-14T05:22:45.317Z,4.00
2019-05-14T05:25:35.391Z,4.00
2019-05-14T05:28:23.287Z,4.10
2019-05-14T05:30:51.699Z,4.30
2019-05-14T05:33:29.341Z,4.50
2019-05-14T05:36:15.476Z,4.50
2019-05-14T05:39:10.423Z,4.60
2019-05-14T05:42:25.183Z,4.60
2019-05-14T05:48:48.439Z,5.30
2019-05-14T05:52:14.859Z,5.50
2019-05-14T05:59:29.010Z,6.00
2019-05-14T06:02:30.466Z,6.40
2019-05-14T06:05:38.639Z,6.40
2019-05-14T06:08:21.488Z,6.50
2019-05-14T06:11:04.316Z,6.60
2019-05-14T06:13:52.491Z,6.70
2019-05-14T06:24:14.826Z,7.10
2019-05-14T06:26:59.858Z,7.20
2019-05-14T06:30:05.017Z,7.40
2019-05-14T06:32:39.177Z,7.40
2019-05-14T06:35:09.434Z,7.50
2019-05-14T06:37:40.861Z,7.50
2019-05-14T06:40:09.263Z,7.70
2019-05-14T06:42:39.191Z,7.70
2019-05-14T06:45:19.785Z,7.80
2019-05-14T06:48:34.742Z,8.00
2019-05-14T06:51:39.794Z,8.20
2019-05-14T06:54:24.856Z,8.60
2019-05-14T06:56:53.047Z,10.20
2019-05-14T06:59:47.980Z,11.80
2019-05-14T07:02:14.672Z,13.00
2019-05-14T07:04:42.888Z,13.90
2019-05-14T07:07:10.526Z,14.20
2019-05-14T07:10:12.673Z,15.00
2019-05-14T07:13:08.500Z,15.40
2019-05-14T07:15:35.346Z,14.60
2019-05-14T07:18:05.387Z,15.50
2019-05-14T07:20:39.170Z,16.50
2019-05-14T07:23:08.518Z,16.60
2019-05-14T07:25:48.424Z,14.40
2019-05-14T07:28:22.196Z,14.30
2019-05-14T07:31:19.324Z,13.50
2019-05-14T07:34:13.183Z,14.30
2019-05-14T07:40:43.019Z,15.30
2019-05-14T07:43:12.449Z,16.80
2019-05-14T07:45:40.983Z,16.00
2019-05-14T07:48:09.558Z,15.00
2019-05-14T07:50:39.856Z,15.30
2019-05-14T07:54:08.153Z,15.90
2019-05-14T07:56:49.061Z,16.20
2019-05-14T07:59:21.727Z,16.00
2019-05-14T08:01:58.842Z,14.70
2019-05-14T08:04:28.927Z,15.00
2019-05-14T08:07:09.011Z,14.00
2019-05-14T08:09:49.643Z,13.00
2019-05-14T08:12:25.368Z,15.30
2019-05-14T08:15:17.461Z,16.20
2019-05-14T08:17:32.239Z,16.90
2019-05-14T08:27:48.022Z,17.10
2019-05-14T08:30:15.624Z,15.20
2019-05-14T08:32:53.875Z,14.50
2019-05-14T08:35:25.483Z,15.10
2019-05-14T08:38:04.590Z,14.40
2019-05-14T08:40:23.997Z,16.40
2019-05-14T08:42:53.418Z,17.10
2019-05-14T08:45:50.713Z,17.10
2019-05-14T08:52:25.418Z,14.10
2019-05-14T08:55:07.282Z,14.10
2019-05-14T08:57:29.194Z,15.30
2019-05-14T09:00:41.462Z,14.60
2019-05-14T09:03:33.378Z,14.40
2019-05-14T09:06:03.283Z,14.00
2019-05-14T09:08:50.828Z,13.40
2019-05-14T09:11:36.257Z,13.60
2019-05-14T09:14:10.955Z,13.60
2019-05-14T09:16:51.235Z,13.50
2019-05-14T09:19:20.105Z,14.00
2019-05-14T09:21:49.548Z,14.50
2019-05-14T09:28:00.265Z,16.00
2019-05-14T09:30:38.147Z,14.70
2019-05-14T09:37:39.603Z,15.00
2019-05-14T09:40:19.814Z,13.10
2019-05-14T09:42:50.010Z,12.90
2019-05-14T09:46:22.930Z,13.20
2019-05-14T09:49:10.690Z,12.80
2019-05-14T09:52:08.943Z,12.90
2019-05-14T09:55:24.409Z,13.30
2019-05-14T09:58:11.135Z,13.80
2019-05-14T10:00:43.983Z,13.70
2019-05-14T10:03:23.167Z,13.20
2019-05-14T10:06:09.293Z,12.90
2019-05-14T10:08:53.856Z,12.90
2019-05-14T10:11:55.345Z,13.20
2019-05-14T10:15:09.239Z,12.40
2019-05-14T10:18:00.508Z,12.60
2019-05-14T10:20:45.798Z,13.10
2019-05-14T10:23:19.925Z,13.00
2019-05-14T10:25:54.907Z,13.20
2019-05-14T10:28:32.600Z,13.60
2019-05-14T10:31:13.429Z,13.30
2019-05-14T10:34:33.438Z,13.60
2019-05-14T10:37:33.759Z,13.20
2019-05-14T10:40:15.289Z,12.50
2019-05-14T10:43:45.309Z,13.00
2019-05-14T10:46:13.783Z,13.40
2019-05-14T10:48:55.518Z,13.00
2019-05-14T10:51:31.262Z,12.30
2019-05-14T10:54:25.224Z,12.90
2019-05-14T10:58:08.924Z,12.90
2019-05-14T11:01:11.388Z,13.20
2019-05-14T11:04:04.341Z,12.90
2019-05-14T11:07:29.206Z,12.80
2019-05-14T11:10:42.644Z,13.20
2019-05-14T11:14:13.288Z,12.90
2019-05-14T11:17:11.865Z,13.40
2019-05-14T11:19:50.316Z,13.40
2019-05-14T11:22:22.820Z,13.20
2019-05-14T11:24:54.038Z,13.20
2019-05-14T11:27:22.417Z,13.20
2019-05-14T11:30:03.618Z,13.00
2019-05-14T11:32:34.434Z,13.00
2019-05-14T11:35:12.716Z,13.20
2019-05-14T11:42:08.814Z,13.80
2019-05-14T11:48:26.663Z,13.50
2019-05-14T11:51:09.026Z,13.70
2019-05-14T11:53:49.204Z,13.80
2019-05-14T11:56:22.552Z,13.50
2019-05-14T11:58:55.636Z,12.80
2019-05-14T12:05:30.694Z,12.60
2019-05-14T12:08:04.711Z,13.00
2019-05-14T12:11:38.483Z,14.00
2019-05-14T12:15:02.510Z,13.80
2019-05-14T12:17:33.388Z,13.50
2019-05-14T12:20:17.619Z,13.80
2019-05-14T12:23:04.325Z,13.90
2019-05-14T12:25:41.189Z,14.00
2019-05-14T12:28:19.382Z,14.00
2019-05-14T12:30:49.000Z,13.90
2019-05-14T12:33:39.606Z,13.90
2019-05-14T12:36:20.103Z,14.20
2019-05-14T12:39:09.936Z,14.30
2019-05-14T12:44:58.528Z,13.60
2019-05-14T12:47:30.043Z,14.20
2019-05-14T12:49:59.276Z,14.00
2019-05-14T12:52:58.886Z,14.40
2019-05-14T12:55:28.586Z,14.40
2019-05-14T12:57:59.673Z,14.40
2019-05-14T13:00:30.345Z,14.30
2019-05-14T13:03:00.588Z,14.50
2019-05-14T13:05:37.495Z,14.50
2019-05-14T13:12:01.529Z,14.90
2019-05-14T13:15:35.057Z,14.80
2019-05-14T13:18:12.400Z,13.20
2019-05-14T13:24:39.157Z,13.00
2019-05-14T13:27:20.474Z,13.30
2019-05-14T13:29:49.545Z,13.90
2019-05-14T13:32:25.345Z,14.20
2019-05-14T13:35:13.622Z,14.40
2019-05-14T13:37:48.827Z,14.60
2019-05-14T13:40:29.751Z,14.60
2019-05-14T13:43:18.766Z,13.70
2019-05-14T13:45:58.815Z,14.20
2019-05-14T13:48:29.708Z,14.20
2019-05-14T13:51:33.619Z,14.60
2019-05-14T13:54:31.746Z,14.90
2019-05-14T13:57:12.188Z,14.80
2019-05-14T13:59:49.822Z,14.70
2019-05-14T14:02:21.179Z,14.90
2019-05-14T14:04:58.944Z,14.40
2019-05-14T14:07:49.144Z,14.60
2019-05-14T14:10:35.321Z,15.20
2019-05-14T14:13:19.744Z,14.70
2019-05-14T14:16:14.363Z,14.60
2019-05-14T14:19:49.043Z,14.80
2019-05-14T14:25:54.547Z,14.50
2019-05-14T14:33:18.579Z,13.90
2019-05-14T14:36:00.890Z,14.00
2019-05-14T14:38:54.518Z,13.70
2019-05-14T14:41:43.696Z,13.80
2019-05-14T14:44:35.424Z,14.00
2019-05-14T14:48:01.349Z,14.50
2019-05-14T14:50:32.930Z,14.00
2019-05-14T14:53:03.855Z,13.80
2019-05-14T14:55:31.657Z,14.00
2019-05-14T14:57:59.524Z,13.30
2019-05-14T15:01:19.588Z,13.00
2019-05-14T15:03:49.571Z,12.90
2019-05-14T15:06:52.724Z,12.70
2019-05-14T15:09:48.722Z,12.90
2019-05-14T15:12:35.668Z,12.60
2019-05-14T15:15:09.064Z,12.30
2019-05-14T15:17:39.429Z,12.10
2019-05-14T15:24:05.923Z,12.40
2019-05-14T15:27:34.997Z,13.00
2019-05-14T15:38:17.001Z,13.20
2019-05-14T15:40:45.121Z,13.00
2019-05-14T15:46:41.716Z,12.70
2019-05-14T15:49:56.465Z,13.30
2019-05-14T15:52:39.503Z,13.40
2019-05-14T15:55:08.792Z,13.60
2019-05-14T15:57:39.579Z,13.80
2019-05-14T16:00:08.701Z,14.00
2019-05-14T16:02:40.084Z,14.20
2019-05-14T16:05:09.969Z,14.00
2019-05-14T16:07:41.572Z,13.80
2019-05-14T16:10:21.775Z,13.80
2019-05-14T16:13:10.211Z,14.20
2019-05-14T16:16:10.666Z,13.40
2019-05-14T16:18:48.690Z,13.30
2019-05-14T16:21:28.838Z,13.40
2019-05-14T16:24:01.218Z,12.90
2019-05-14T16:26:48.866Z,12.60
2019-05-14T16:29:41.769Z,12.00
2019-05-14T16:32:28.380Z,11.90
2019-05-14T16:34:58.076Z,12.00
2019-05-14T16:37:34.439Z,11.90
2019-05-14T16:40:06.002Z,11.70
2019-05-14T16:42:35.623Z,11.60
2019-05-14T16:49:29.396Z,11.70
2019-05-14T16:52:01.271Z,12.10
2019-05-14T16:55:17.358Z,12.10
2019-05-14T16:57:45.551Z,12.40
2019-05-14T17:00:21.195Z,12.10
2019-05-14T17:02:49.284Z,12.60
2019-05-14T17:08:52.484Z,13.00
2019-05-14T17:11:22.221Z,13.00
2019-05-14T17:13:52.845Z,12.90
2019-05-14T17:16:29.165Z,13.00
2019-05-14T17:18:59.334Z,12.90
2019-05-14T17:21:48.561Z,12.70
2019-05-14T17:24:25.087Z,12.80
2019-05-14T17:27:01.074Z,12.10
2019-05-14T17:29:54.718Z,12.10
2019-05-14T17:32:39.427Z,12.00
2019-05-14T17:35:29.584Z,12.00
2019-05-14T17:38:39.039Z,12.10
2019-05-14T17:41:12.176Z,12.10
2019-05-14T17:43:49.314Z,11.90
2019-05-14T17:46:22.875Z,11.80
2019-05-14T17:48:50.514Z,11.70
2019-05-14T17:51:24.363Z,11.60
2019-05-14T17:53:58.693Z,11.80
2019-05-14T17:56:40.679Z,11.70
2019-05-14T17:59:10.134Z,11.70
2019-05-14T18:01:41.381Z,11.60
2019-05-14T18:04:13.699Z,11.70
2019-05-14T18:06:44.167Z,11.70
2019-05-14T18:09:32.555Z,11.70
2019-05-14T18:12:18.893Z,11.70
2019-05-14T18:14:48.119Z,11.70
2019-05-14T18:17:33.308Z,11.90
2019-05-14T18:20:15.190Z,11.60
2019-05-14T18:23:15.154Z,11.50
2019-05-14T18:25:43.310Z,11.40
2019-05-14T18:28:14.866Z,11.20
2019-05-14T18:30:49.082Z,11.20
2019-05-14T18:33:34.134Z,11.20
2019-05-14T18:42:33.591Z,11.00
2019-05-14T18:45:09.761Z,11.00
2019-05-14T18:47:59.109Z,10.90
2019-05-14T18:50:28.870Z,10.90
2019-05-14T18:52:59.445Z,10.80
2019-05-14T18:55:29.574Z,10.70
2019-05-14T18:58:20.981Z,10.80
2019-05-14T19:01:06.058Z,10.80
2019-05-14T19:03:42.344Z,10.80
2019-05-14T19:06:19.316Z,10.80
2019-05-14T19:08:51.672Z,10.70
2019-05-14T19:11:27.962Z,10.50
2019-05-14T19:14:04.551Z,10.50
2019-05-14T19:16:38.127Z,10.40
2019-05-14T19:19:13.856Z,10.40
2019-05-14T19:21:44.607Z,10.30
2019-05-14T19:24:23.680Z,10.30
2019-05-14T19:26:59.659Z,10.30
2019-05-14T19:29:39.495Z,10.20
2019-05-14T19:32:10.413Z,10.10
2019-05-14T19:34:57.003Z,10.10
2019-05-14T19:37:29.850Z,10.10
2019-05-14T19:39:58.728Z,9.90
2019-05-14T19:42:38.758Z,9.90
2019-05-14T19:45:12.369Z,9.90
2019-05-14T19:47:58.269Z,9.90
2019-05-14T19:50:58.337Z,9.70
2019-05-14T19:53:28.437Z,9.70
2019-05-14T19:55:59.201Z,9.50
2019-05-14T19:58:26.219Z,9.50
2019-05-14T20:01:02.900Z,9.50
2019-05-14T20:03:49.369Z,9.40
2019-05-14T20:06:29.476Z,9.30
2019-05-14T20:08:59.017Z,9.30
2019-05-14T20:11:29.006Z,9.20
2019-05-14T20:14:10.610Z,9.10
2019-05-14T20:16:49.166Z,9.10
2019-05-14T20:19:46.515Z,9.20
2019-05-14T20:22:32.621Z,9.20
2019-05-14T20:25:32.285Z,9.30
2019-05-14T20:28:52.301Z,9.20
2019-05-14T20:31:24.942Z,9.30
2019-05-14T20:34:05.076Z,9.10
2019-05-14T20:36:38.949Z,9.00
2019-05-14T20:39:20.592Z,9.00
2019-05-14T20:41:49.767Z,9.00
2019-05-14T20:44:19.701Z,9.10
2019-05-14T20:47:03.572Z,9.00
2019-05-14T20:49:48.813Z,9.00
2019-05-14T20:52:32.183Z,8.90
2019-05-14T20:55:01.674Z,9.00
2019-05-14T20:57:33.448Z,8.90
2019-05-14T21:00:06.116Z,8.80
2019-05-14T21:02:39.290Z,8.80
2019-05-14T21:05:13.451Z,8.80
2019-05-14T21:07:54.527Z,8.70
2019-05-14T21:10:23.881Z,8.70
2019-05-14T21:12:58.099Z,8.70
2019-05-14T21:15:48.157Z,8.70
2019-05-14T21:18:40.969Z,8.60
2019-05-14T21:21:39.926Z,8.50
2019-05-14T21:24:21.495Z,8.50
2019-05-14T21:26:48.286Z,8.50
2019-05-14T21:29:25.301Z,8.50
2019-05-14T21:32:08.193Z,8.40
2019-05-14T21:34:42.273Z,8.40
2019-05-14T21:37:18.798Z,8.50
2019-05-14T21:39:52.685Z,8.40
2019-05-14T21:42:24.258Z,8.40
2019-05-14T21:44:52.582Z,8.40
2019-05-14T21:47:23.186Z,8.40
2019-05-14T21:50:08.931Z,8.30
2019-05-14T21:52:49.538Z,8.10
2019-05-14T21:55:34.694Z,8.00
2019-05-14T21:58:12.155Z,8.10
2019-05-14T22:00:48.580Z,8.10
2019-05-14T22:03:20.555Z,8.00
2019-05-14T22:05:48.287Z,8.00
2019-05-14T22:08:16.417Z,8.00
2019-05-14T22:10:45.186Z,7.80
2019-05-14T22:13:13.896Z,7.90
2019-05-14T22:15:43.372Z,7.90
2019-05-14T22:18:17.826Z,7.90
2019-05-14T22:20:44.646Z,7.80
2019-05-14T22:23:13.808Z,7.80
2019-05-14T22:25:42.346Z,7.70
2019-05-14T22:28:15.406Z,7.70
2019-05-14T22:30:42.823Z,7.70
2019-05-14T22:33:15.590Z,7.60
2019-05-14T22:35:48.610Z,7.60
2019-05-14T22:38:33.815Z,7.60
2019-05-14T22:41:03.466Z,7.50
2019-05-14T22:43:38.320Z,7.40
2019-05-14T22:46:08.430Z,7.30
2019-05-14T22:48:42.917Z,7.10
2019-05-14T22:51:13.327Z,6.90
2019-05-14T22:53:45.109Z,6.80
2019-05-14T22:56:18.583Z,6.60
2019-05-14T22:59:07.794Z,6.60
2019-05-14T23:02:02.572Z,6.50
2019-05-14T23:04:35.925Z,6.30
2019-05-14T23:07:15.345Z,6.10
2019-05-14T23:10:09.041Z,5.90
2019-05-14T23:12:40.064Z,5.70
2019-05-14T23:15:09.527Z,5.80
2019-05-14T23:17:44.221Z,5.80
2019-05-14T23:20:12.051Z,5.70
2019-05-14T23:25:09.008Z,5.70
2019-05-14T23:27:59.031Z,5.60
2019-05-14T23:30:48.114Z,5.60
2019-05-14T23:33:39.833Z,5.40
2019-05-14T23:36:24.788Z,5.40
2019-05-14T23:38:54.268Z,5.40
2019-05-14T23:41:24.821Z,5.30
2019-05-14T23:43:53.719Z,5.20
2019-05-14T23:46:21.443Z,5.20
2019-05-14T23:48:49.530Z,5.20
2019-05-14T23:51:18.214Z,5.20
2019-05-14T23:53:55.093Z,5.20
2019-05-14T23:56:22.720Z,5.20
2019-05-14T23:59:12.297Z,5.10
